createdAt,value
2018-06-19T00:01:15.979Z,17.40
2018-06-19T00:03:45.517Z,17.40
2018-06-19T00:06:13.881Z,17.40
2018-06-19T00:08:42.190Z,17.40
2018-06-19T00:11:11.239Z,17.30
2018-06-19T00:13:39.716Z,17.30
2018-06-19T00:16:08.976Z,17.30
2018-06-19T00:18:41.151Z,17.20
2018-06-19T00:21:16.526Z,17.20
2018-06-19T00:23:48.618Z,17.20
2018-06-19T00:26:17.367Z,17.10
2018-06-19T00:28:46.806Z,17.00
2018-06-19T00:31:18.217Z,17.00
2018-06-19T00:33:50.517Z,16.90
2018-06-19T00:36:20.209Z,16.90
2018-06-19T00:38:48.692Z,16.90
2018-06-19T00:41:17.338Z,16.90
2018-06-19T00:43:45.757Z,16.80
2018-06-19T00:46:14.643Z,16.80
2018-06-19T00:48:42.971Z,16.70
2018-06-19T00:51:11.316Z,16.70
2018-06-19T00:53:39.698Z,16.70
2018-06-19T00:56:19.610Z,16.60
2018-06-19T00:58:48.454Z,16.60
2018-06-19T01:01:16.965Z,16.50
2018-06-19T01:03:46.419Z,16.50
2018-06-19T01:06:14.905Z,16.40
2018-06-19T01:08:44.030Z,16.40
2018-06-19T01:11:12.301Z,16.40
2018-06-19T01:13:40.593Z,16.30
2018-06-19T01:16:08.930Z,16.30
2018-06-19T01:18:40.878Z,16.30
2018-06-19T01:21:09.230Z,16.30
2018-06-19T01:23:37.548Z,16.30
2018-06-19T01:26:06.415Z,16.30
2018-06-19T01:28:34.991Z,16.30
2018-06-19T01:31:03.261Z,16.20
2018-06-19T01:33:31.584Z,16.20
2018-06-19T01:35:59.898Z,16.20
2018-06-19T01:38:28.257Z,16.20
2018-06-19T01:40:59.283Z,16.20
2018-06-19T01:43:28.749Z,16.20
2018-06-19T01:45:58.362Z,16.20
2018-06-19T01:48:27.814Z,16.10
2018-06-19T01:50:58.117Z,16.10
2018-06-19T01:53:27.757Z,16.10
2018-06-19T01:55:57.202Z,16.10
2018-06-19T01:58:26.712Z,16.10
2018-06-19T02:00:58.475Z,16.10
2018-06-19T02:03:28.092Z,16.10
2018-06-19T02:08:26.002Z,16.10
2018-06-19T02:10:55.206Z,16.00
2018-06-19T02:13:24.131Z,16.00
2018-06-19T02:15:52.960Z,16.00
2018-06-19T02:18:21.267Z,16.00
2018-06-19T02:20:49.572Z,16.00
2018-06-19T02:23:18.860Z,15.90
2018-06-19T02:25:47.502Z,15.90
2018-06-19T02:28:15.831Z,15.90
2018-06-19T02:30:44.223Z,15.80
2018-06-19T02:33:13.117Z,15.80
2018-06-19T02:35:41.605Z,15.80
2018-06-19T02:38:09.923Z,15.70
2018-06-19T02:40:38.933Z,15.70
2018-06-19T02:43:07.620Z,15.60
2018-06-19T02:45:36.219Z,15.60
2018-06-19T02:48:05.542Z,15.60
2018-06-19T02:50:34.849Z,15.60
2018-06-19T02:53:03.341Z,15.50
2018-06-19T02:55:31.678Z,15.50
2018-06-19T02:57:59.973Z,15.50
2018-06-19T03:00:28.523Z,15.50
2018-06-19T03:02:57.370Z,15.50
2018-06-19T03:05:25.948Z,15.40
2018-06-19T03:07:54.842Z,15.40
2018-06-19T03:10:23.134Z,15.40
2018-06-19T03:12:51.425Z,15.40
2018-06-19T03:15:20.088Z,15.30
2018-06-19T03:17:48.399Z,15.30
2018-06-19T03:20:17.799Z,15.30
2018-06-19T03:25:16.910Z,15.20
2018-06-19T03:27:46.561Z,15.20
2018-06-19T03:30:17.767Z,15.20
2018-06-19T03:32:47.577Z,15.20
2018-06-19T03:35:15.916Z,15.30
2018-06-19T03:37:44.880Z,15.30
2018-06-19T03:40:13.791Z,15.30
2018-06-19T03:42:42.605Z,15.30
2018-06-19T03:45:10.945Z,15.40
2018-06-19T03:47:39.870Z,15.40
2018-06-19T03:50:08.141Z,15.40
2018-06-19T03:52:37.801Z,15.50
2018-06-19T03:55:06.741Z,15.50
2018-06-19T03:57:36.709Z,15.50
2018-06-19T04:00:07.971Z,15.60
2018-06-19T04:05:05.627Z,15.70
2018-06-19T04:07:33.894Z,15.80
2018-06-19T04:10:02.194Z,15.90
2018-06-19T04:12:30.889Z,16.00
2018-06-19T04:14:59.162Z,16.00
2018-06-19T04:17:28.442Z,16.10
2018-06-19T04:19:58.650Z,16.30
2018-06-19T04:22:28.445Z,16.30
2018-06-19T04:24:57.626Z,16.40
2018-06-19T04:27:26.129Z,16.60
2018-06-19T04:29:54.382Z,16.70
2018-06-19T04:32:22.670Z,16.90
2018-06-19T04:34:51.182Z,17.10
2018-06-19T04:37:20.583Z,17.30
2018-06-19T04:39:48.929Z,17.50
2018-06-19T04:42:20.716Z,17.70
2018-06-19T04:44:48.997Z,17.80
2018-06-19T04:47:17.269Z,17.90
2018-06-19T04:49:46.385Z,18.00
2018-06-19T04:52:15.531Z,18.20
2018-06-19T04:54:44.029Z,18.50
2018-06-19T04:57:12.903Z,18.80
2018-06-19T04:59:41.179Z,19.20
2018-06-19T05:02:09.470Z,19.40
2018-06-19T05:04:44.460Z,19.50
2018-06-19T05:07:12.806Z,19.70
2018-06-19T05:09:42.451Z,19.90
2018-06-19T05:12:10.734Z,20.00
2018-06-19T05:14:39.523Z,20.10
2018-06-19T05:17:07.808Z,20.30
2018-06-19T05:19:36.681Z,20.40
2018-06-19T05:27:02.229Z,20.80
2018-06-19T05:29:30.822Z,21.00
2018-06-19T05:31:59.198Z,21.10
2018-06-19T05:34:27.607Z,21.20
2018-06-19T05:36:55.970Z,21.30
2018-06-19T05:39:25.562Z,21.50
2018-06-19T05:44:22.474Z,21.80
2018-06-19T05:46:50.758Z,21.90
2018-06-19T05:49:19.030Z,21.90
2018-06-19T05:51:47.297Z,21.80
2018-06-19T05:54:16.631Z,21.80
2018-06-19T05:56:47.054Z,21.80
2018-06-19T05:59:17.156Z,22.00
2018-06-19T06:01:47.179Z,22.30
2018-06-19T06:04:15.474Z,22.60
2018-06-19T06:06:43.734Z,22.80
2018-06-19T06:09:12.010Z,23.00
2018-06-19T06:11:40.273Z,22.90
2018-06-19T06:14:09.467Z,22.90
2018-06-19T06:19:12.426Z,23.20
2018-06-19T06:21:40.684Z,23.20
2018-06-19T06:24:09.018Z,23.30
2018-06-19T06:26:37.287Z,23.10
2018-06-19T06:29:05.618Z,23.00
2018-06-19T06:31:33.882Z,23.30
2018-06-19T06:34:02.206Z,23.60
2018-06-19T06:36:30.514Z,23.90
2018-06-19T06:38:58.811Z,24.30
2018-06-19T06:41:27.107Z,24.60
2018-06-19T06:43:55.547Z,24.60
2018-06-19T06:46:23.847Z,24.70
2018-06-19T06:48:52.155Z,24.30
2018-06-19T06:51:20.462Z,24.30
2018-06-19T06:53:48.976Z,24.40
2018-06-19T06:56:17.266Z,24.80
2018-06-19T06:58:45.529Z,25.20
2018-06-19T07:01:13.910Z,25.30
2018-06-19T07:03:42.140Z,25.60
2018-06-19T07:06:10.442Z,26.00
2018-06-19T07:08:38.705Z,26.30
2018-06-19T07:11:07.107Z,26.50
2018-06-19T07:13:37.615Z,26.60
2018-06-19T07:16:06.457Z,26.70
2018-06-19T07:18:36.162Z,26.90
2018-06-19T07:21:05.568Z,27.10
2018-06-19T07:23:34.059Z,27.10
2018-06-19T07:26:02.554Z,27.40
2018-06-19T07:28:31.175Z,27.70
2018-06-19T07:30:59.522Z,27.70
2018-06-19T07:33:27.802Z,27.90
2018-06-19T07:35:56.114Z,28.20
2018-06-19T07:38:24.758Z,28.40
2018-06-19T07:40:53.093Z,28.70
2018-06-19T07:43:21.397Z,28.40
2018-06-19T07:45:49.726Z,28.50
2018-06-19T07:48:17.999Z,28.70
2018-06-19T07:50:46.285Z,28.80
2018-06-19T07:53:14.814Z,29.20
2018-06-19T07:55:43.151Z,29.50
2018-06-19T07:58:11.476Z,29.80
2018-06-19T08:00:39.747Z,30.00
2018-06-19T08:03:08.109Z,30.40
2018-06-19T08:05:36.406Z,30.90
2018-06-19T08:08:05.215Z,31.50
2018-06-19T08:10:33.786Z,31.90
2018-06-19T08:13:02.506Z,32.20
2018-06-19T08:15:30.848Z,32.30
2018-06-19T08:17:59.839Z,32.50
2018-06-19T08:20:28.213Z,32.90
2018-06-19T08:22:56.734Z,33.40
2018-06-19T08:25:25.019Z,34.00
2018-06-19T08:27:53.338Z,34.60
2018-06-19T08:30:21.623Z,35.10
2018-06-19T08:32:49.911Z,36.10
2018-06-19T08:35:18.249Z,37.50
2018-06-19T08:37:46.526Z,36.70
2018-06-19T08:40:14.814Z,36.50
2018-06-19T08:42:43.254Z,38.00
2018-06-19T08:45:11.534Z,39.90
2018-06-19T08:47:40.354Z,41.20
2018-06-19T08:50:09.098Z,41.20
2018-06-19T08:52:37.478Z,41.00
2018-06-19T08:55:05.817Z,41.40
2018-06-19T08:57:34.106Z,41.30
2018-06-19T09:00:02.377Z,39.40
2018-06-19T09:02:30.663Z,38.00
2018-06-19T09:04:58.997Z,36.90
2018-06-19T09:07:27.327Z,35.70
2018-06-19T09:09:55.854Z,35.50
2018-06-19T09:12:24.129Z,34.50
2018-06-19T09:14:52.404Z,33.50
2018-06-19T09:17:21.252Z,32.60
2018-06-19T09:19:49.719Z,31.70
2018-06-19T09:22:17.994Z,30.90
2018-06-19T09:24:46.755Z,30.50
2018-06-19T09:27:15.815Z,30.60
2018-06-19T09:29:44.960Z,32.40
2018-06-19T09:32:13.273Z,32.90
2018-06-19T09:37:09.567Z,34.80
2018-06-19T09:39:37.886Z,36.10
2018-06-19T09:42:06.676Z,37.30
2018-06-19T09:44:35.675Z,36.50
2018-06-19T09:47:04.763Z,34.90
2018-06-19T09:49:33.087Z,33.40
2018-06-19T09:52:01.396Z,32.20
2018-06-19T09:54:29.691Z,31.40
2018-06-19T09:56:57.999Z,31.00
2018-06-19T09:59:26.320Z,31.10
2018-06-19T10:01:54.575Z,30.80
2018-06-19T10:04:22.872Z,30.70
2018-06-19T10:06:51.126Z,30.80
2018-06-19T10:09:19.435Z,31.10
2018-06-19T10:11:47.719Z,31.10
2018-06-19T10:14:16.017Z,30.90
2018-06-19T10:16:44.302Z,30.70
2018-06-19T10:19:12.566Z,30.30
2018-06-19T10:21:40.873Z,30.00
2018-06-19T10:24:09.693Z,30.00
2018-06-19T10:26:38.135Z,30.00
2018-06-19T10:29:06.417Z,30.10
2018-06-19T10:31:34.695Z,30.10
2018-06-19T10:34:02.990Z,30.10
2018-06-19T10:36:31.915Z,30.40
2018-06-19T10:39:00.380Z,30.40
2018-06-19T10:41:28.718Z,30.40
2018-06-19T10:43:57.033Z,30.70
2018-06-19T10:46:25.392Z,31.90
2018-06-19T10:48:53.764Z,33.20
2018-06-19T10:51:22.058Z,33.90
2018-06-19T10:53:50.902Z,34.50
2018-06-19T10:56:19.223Z,34.80
2018-06-19T10:58:47.661Z,34.70
2018-06-19T11:01:16.406Z,34.30
2018-06-19T11:03:45.944Z,33.60
2018-06-19T11:06:15.598Z,32.80
2018-06-19T11:08:44.979Z,32.10
2018-06-19T11:11:13.306Z,31.30
2018-06-19T11:13:41.719Z,31.00
2018-06-19T11:16:10.056Z,30.60
2018-06-19T11:18:38.374Z,30.40
2018-06-19T11:21:07.309Z,30.20
2018-06-19T11:23:35.834Z,30.10
2018-06-19T11:26:04.414Z,30.20
2018-06-19T11:28:32.802Z,30.10
2018-06-19T11:31:01.171Z,30.20
2018-06-19T11:33:29.447Z,30.20
2018-06-19T11:35:57.705Z,30.00
2018-06-19T11:38:26.284Z,29.90
2018-06-19T11:40:54.622Z,29.90
2018-06-19T11:43:22.918Z,30.00
2018-06-19T11:45:51.422Z,30.20
2018-06-19T11:48:19.755Z,30.20
2018-06-19T11:50:49.184Z,30.30
2018-06-19T11:53:18.503Z,30.20
2018-06-19T11:55:46.947Z,30.10
2018-06-19T11:58:15.496Z,29.80
2018-06-19T12:00:44.900Z,29.30
2018-06-19T12:03:13.192Z,29.30
2018-06-19T12:05:41.850Z,29.20
2018-06-19T12:08:10.149Z,29.20
2018-06-19T12:10:38.405Z,29.10
2018-06-19T12:13:07.209Z,29.10
2018-06-19T12:15:36.242Z,29.10
2018-06-19T12:18:05.146Z,29.00
2018-06-19T12:20:34.458Z,29.00
2018-06-19T12:23:03.332Z,29.00
2018-06-19T12:25:31.598Z,28.70
2018-06-19T12:27:59.915Z,28.70
2018-06-19T12:30:28.281Z,28.60
2018-06-19T12:32:56.996Z,28.70
2018-06-19T12:35:25.624Z,28.30
2018-06-19T12:37:54.075Z,28.20
2018-06-19T12:40:23.158Z,28.10
2018-06-19T12:42:51.484Z,27.90
2018-06-19T12:45:19.896Z,27.70
2018-06-19T12:47:48.203Z,27.60
2018-06-19T12:50:40.077Z,27.50
2018-06-19T12:53:20.439Z,27.30
2018-06-19T12:56:01.192Z,27.30
2018-06-19T12:58:29.760Z,27.50
2018-06-19T13:00:58.077Z,27.50
2018-06-19T13:03:37.718Z,27.70
2018-06-19T13:06:17.479Z,27.60
2018-06-19T13:08:45.758Z,27.40
2018-06-19T13:11:14.069Z,27.10
2018-06-19T13:13:53.622Z,27.10
2018-06-19T13:19:06.909Z,26.80
2018-06-19T13:21:35.356Z,26.60
2018-06-19T13:24:03.763Z,26.60
2018-06-19T13:26:32.095Z,26.50
2018-06-19T13:29:39.239Z,26.40
2018-06-19T13:32:07.547Z,26.30
2018-06-19T13:34:36.518Z,26.20
2018-06-19T13:37:05.359Z,26.20
2018-06-19T13:39:34.677Z,26.30
2018-06-19T13:42:14.973Z,26.50
2018-06-19T13:45:05.411Z,26.60
2018-06-19T13:47:34.426Z,26.90
2018-06-19T13:50:02.778Z,27.10
2018-06-19T13:52:31.076Z,27.20
2018-06-19T13:57:24.435Z,27.30
2018-06-19T13:59:52.726Z,27.30
2018-06-19T14:02:21.314Z,27.30
2018-06-19T14:04:50.052Z,27.30
2018-06-19T14:07:18.872Z,27.30
2018-06-19T14:09:58.855Z,27.20
2018-06-19T14:12:38.268Z,27.10
2018-06-19T14:15:07.210Z,26.90
2018-06-19T14:17:35.892Z,26.70
2018-06-19T14:20:04.367Z,26.60
2018-06-19T14:22:32.663Z,26.50
2018-06-19T14:25:01.536Z,26.30
2018-06-19T14:27:29.885Z,26.20
2018-06-19T14:29:58.146Z,26.20
2018-06-19T14:32:27.075Z,26.20
2018-06-19T14:34:55.887Z,26.20
2018-06-19T14:37:24.810Z,26.20
2018-06-19T14:39:53.079Z,26.10
2018-06-19T14:42:21.394Z,26.10
2018-06-19T14:44:50.303Z,26.10
2018-06-19T14:47:18.611Z,26.20
2018-06-19T14:49:47.141Z,26.30
2018-06-19T14:52:15.679Z,26.50
2018-06-19T14:54:44.670Z,26.60
2018-06-19T14:57:13.276Z,26.80
2018-06-19T14:59:41.707Z,27.00
2018-06-19T15:02:10.110Z,27.10
2018-06-19T15:04:38.415Z,27.10
2018-06-19T15:07:06.915Z,27.20
2018-06-19T15:09:35.702Z,27.30
2018-06-19T15:12:04.329Z,27.30
2018-06-19T15:14:33.407Z,27.30
2018-06-19T15:17:01.860Z,27.20
2018-06-19T15:19:30.193Z,27.30
2018-06-19T15:21:58.493Z,27.30
2018-06-19T15:24:27.071Z,27.20
2018-06-19T15:26:56.014Z,27.10
2018-06-19T15:29:25.728Z,27.10
2018-06-19T15:31:54.122Z,27.10
2018-06-19T15:34:22.707Z,27.10
2018-06-19T15:39:19.275Z,27.00
2018-06-19T15:41:47.600Z,26.90
2018-06-19T15:44:16.534Z,26.70
2018-06-19T15:46:44.762Z,26.60
2018-06-19T15:49:13.276Z,26.40
2018-06-19T15:51:41.594Z,26.10
2018-06-19T15:54:10.246Z,26.00
2018-06-19T15:56:38.595Z,25.90
2018-06-19T15:59:07.334Z,25.80
2018-06-19T16:01:35.874Z,25.70
2018-06-19T16:04:04.235Z,25.60
2018-06-19T16:06:32.524Z,25.50
2018-06-19T16:09:00.792Z,25.50
2018-06-19T16:11:29.288Z,25.50
2018-06-19T16:13:58.834Z,25.50
2018-06-19T16:16:27.557Z,25.60
2018-06-19T16:18:56.247Z,25.70
2018-06-19T16:21:24.682Z,25.90
2018-06-19T16:26:21.028Z,26.00
2018-06-19T16:28:49.534Z,26.10
2018-06-19T16:31:18.044Z,26.20
2018-06-19T16:33:46.309Z,26.10
2018-06-19T16:36:14.674Z,25.90
2018-06-19T16:38:43.500Z,25.70
2018-06-19T16:41:11.792Z,25.60
2018-06-19T16:43:40.044Z,25.60
2018-06-19T16:46:08.331Z,25.70
2018-06-19T16:48:37.833Z,25.70
2018-06-19T16:51:07.295Z,25.70
2018-06-19T16:53:35.970Z,25.60
2018-06-19T16:56:05.967Z,25.50
2018-06-19T16:58:36.037Z,25.30
2018-06-19T17:01:04.371Z,25.20
2018-06-19T17:03:32.732Z,25.20
2018-06-19T17:06:00.994Z,25.10
2018-06-19T17:08:29.675Z,24.90
2018-06-19T17:10:58.399Z,24.90
2018-06-19T17:13:26.810Z,24.90
2018-06-19T17:15:55.610Z,25.00
2018-06-19T17:18:23.881Z,24.90
2018-06-19T17:20:52.183Z,24.90
2018-06-19T17:23:20.546Z,24.90
2018-06-19T17:25:48.908Z,24.90
2018-06-19T17:28:18.999Z,24.80
2018-06-19T17:30:49.062Z,24.60
2018-06-19T17:33:19.431Z,24.50
2018-06-19T17:35:48.915Z,24.30
2018-06-19T17:38:19.095Z,24.30
2018-06-19T17:40:48.320Z,24.20
2018-06-19T17:43:18.515Z,24.10
2018-06-19T17:45:47.678Z,24.00
2018-06-19T17:48:16.974Z,24.00
2018-06-19T17:50:47.506Z,23.90
2018-06-19T17:53:15.918Z,23.80
2018-06-19T17:55:44.410Z,23.70
2018-06-19T18:00:40.760Z,23.60
2018-06-19T18:03:09.868Z,23.60
2018-06-19T18:05:38.184Z,23.50
2018-06-19T18:08:06.806Z,23.40
2018-06-19T18:10:35.092Z,23.40
2018-06-19T18:13:03.392Z,23.40
2018-06-19T18:15:31.727Z,23.20
2018-06-19T18:18:00.011Z,23.20
2018-06-19T18:20:28.294Z,23.10
2018-06-19T18:22:56.597Z,23.10
2018-06-19T18:25:24.889Z,23.10
2018-06-19T18:27:53.850Z,23.10
2018-06-19T18:30:22.547Z,23.00
2018-06-19T18:32:51.069Z,23.00
2018-06-19T18:35:19.428Z,22.90
2018-06-19T18:37:47.757Z,22.90
2018-06-19T18:40:17.030Z,22.90
2018-06-19T18:42:46.902Z,22.80
2018-06-19T18:45:15.344Z,22.70
2018-06-19T18:47:43.635Z,22.60
2018-06-19T18:50:12.314Z,22.40
2018-06-19T18:52:40.605Z,22.20
2018-06-19T18:55:09.328Z,22.10
2018-06-19T19:00:06.746Z,21.90
2018-06-19T19:02:36.503Z,21.80
2018-06-19T19:05:05.965Z,21.80
2018-06-19T19:07:35.193Z,21.70
2018-06-19T19:10:09.663Z,21.70
2018-06-19T19:12:38.539Z,21.70
2018-06-19T19:15:13.150Z,21.60
2018-06-19T19:17:46.886Z,21.60
2018-06-19T19:20:16.193Z,21.50
2018-06-19T19:22:44.552Z,21.50
2018-06-19T19:25:12.868Z,21.40
2018-06-19T19:27:46.625Z,21.40
2018-06-19T19:32:43.635Z,21.20
2018-06-19T19:35:12.192Z,21.00
2018-06-19T19:37:46.507Z,20.90
2018-06-19T19:40:14.843Z,20.90
2018-06-19T19:42:43.474Z,20.80
2018-06-19T19:47:45.203Z,20.70
2018-06-19T19:50:13.816Z,20.70
2018-06-19T19:52:42.110Z,20.60
2018-06-19T19:55:10.815Z,20.50
2018-06-19T19:57:45.176Z,20.40
2018-06-19T20:00:19.578Z,20.40
2018-06-19T20:02:49.391Z,20.30
2018-06-19T20:05:17.751Z,20.20
2018-06-19T20:07:46.010Z,19.90
2018-06-19T20:10:14.427Z,19.80
2018-06-19T20:12:42.713Z,19.70
2018-06-19T20:15:11.324Z,19.60
2018-06-19T20:17:40.521Z,19.60
2018-06-19T20:20:10.573Z,19.60
2018-06-19T20:22:39.303Z,19.60
2018-06-19T20:25:08.074Z,19.60
2018-06-19T20:27:36.462Z,19.60
2018-06-19T20:30:06.082Z,19.60
2018-06-19T20:32:34.359Z,19.60
2018-06-19T20:35:02.883Z,19.60
2018-06-19T20:37:31.808Z,19.60
2018-06-19T20:40:00.143Z,19.60
2018-06-19T20:42:28.426Z,19.50
2018-06-19T20:45:00.150Z,19.50
2018-06-19T20:47:28.475Z,19.50
2018-06-19T20:49:56.769Z,19.40
2018-06-19T20:52:26.230Z,19.40
2018-06-19T20:54:54.489Z,19.30
2018-06-19T20:57:22.774Z,19.30
2018-06-19T20:59:51.033Z,19.20
2018-06-19T21:02:19.424Z,19.20
2018-06-19T21:04:47.666Z,19.20
2018-06-19T21:07:15.974Z,19.20
2018-06-19T21:09:45.442Z,19.20
2018-06-19T21:12:13.758Z,19.10
2018-06-19T21:14:42.029Z,19.10
2018-06-19T21:17:10.296Z,19.10
2018-06-19T21:19:38.551Z,19.20
2018-06-19T21:22:06.822Z,19.20
2018-06-19T21:24:35.496Z,19.20
2018-06-19T21:27:04.410Z,19.20
2018-06-19T21:29:33.502Z,19.20
2018-06-19T21:32:01.830Z,19.10
2018-06-19T21:34:30.572Z,19.10
2018-06-19T21:36:58.863Z,19.10
2018-06-19T21:39:27.956Z,19.10
2018-06-19T21:44:24.235Z,19.10
2018-06-19T21:46:52.494Z,19.10
2018-06-19T21:49:20.771Z,19.00
2018-06-19T21:51:49.054Z,19.00
2018-06-19T21:54:17.741Z,19.00
2018-06-19T21:56:46.054Z,19.00
2018-06-19T21:59:14.338Z,18.90
2018-06-19T22:01:43.469Z,19.00
2018-06-19T22:04:12.906Z,19.00
2018-06-19T22:06:41.194Z,19.00
2018-06-19T22:09:09.485Z,19.00
2018-06-19T22:11:37.751Z,19.00
2018-06-19T22:14:06.027Z,19.00
2018-06-19T22:16:34.310Z,18.90
2018-06-19T22:19:02.608Z,19.00
2018-06-19T22:21:30.878Z,19.00
2018-06-19T22:23:59.158Z,19.00
2018-06-19T22:26:27.451Z,19.00
2018-06-19T22:28:55.719Z,18.90
2018-06-19T22:31:24.050Z,19.00
2018-06-19T22:33:52.348Z,19.00
2018-06-19T22:36:20.679Z,19.10
2018-06-19T22:38:48.963Z,19.00
2018-06-19T22:41:17.648Z,19.00
2018-06-19T22:46:14.059Z,19.00
2018-06-19T22:48:42.366Z,19.00
2018-06-19T22:51:11.052Z,19.10
2018-06-19T22:53:39.364Z,19.10
2018-06-19T22:56:07.654Z,19.20
2018-06-19T22:58:36.598Z,19.10
2018-06-19T23:01:04.974Z,19.20
2018-06-19T23:03:33.978Z,19.20
2018-06-19T23:06:02.304Z,19.30
2018-06-19T23:08:34.970Z,19.30
2018-06-19T23:11:03.676Z,19.30
2018-06-19T23:13:31.959Z,19.20
2018-06-19T23:16:01.676Z,19.20
2018-06-19T23:18:30.091Z,19.20
2018-06-19T23:20:58.385Z,19.20
2018-06-19T23:23:26.704Z,19.20
2018-06-19T23:25:55.064Z,19.20
2018-06-19T23:28:23.345Z,19.30
2018-06-19T23:30:51.646Z,19.30
2018-06-19T23:33:19.930Z,19.30
2018-06-19T23:35:48.883Z,19.30
2018-06-19T23:40:46.389Z,19.20
2018-06-19T23:43:14.671Z,19.20
2018-06-19T23:45:42.981Z,19.20
2018-06-19T23:48:11.261Z,19.20
2018-06-19T23:50:39.562Z,19.20
2018-06-19T23:53:07.871Z,19.20
2018-06-19T23:55:36.167Z,19.20
2018-06-19T23:58:04.644Z,19.20
